sensor_id;sensor_type;location;lat;lon;timestamp;P1;durP1;ratioP1;P2;durP2;ratioP2
48897;SDS011;34713;50.038;20.000;2023-05-10T00:02:17;9.60;;;6.20;;
48897;SDS011;34713;50.038;20.000;2023-05-10T00:04:47;10.60;;;6.20;;
48897;SDS011;34713;50.038;20.000;2023-05-10T00:07:28;10.20;;;6.40;;
48897;SDS011;34713;50.038;20.000;2023-05-10T00:10:19;12.50;;;6.50;;
48897;SDS011;34713;50.038;20.000;2023-05-10T00:13:01;9.60;;;6.90;;
48897;SDS011;34713;50.038;20.000;2023-05-10T00:15:44;10.40;;;6.40;;
48897;SDS011;34713;50.038;20.000;2023-05-10T00:21:43;8.50;;;5.30;;
48897;SDS011;34713;50.038;20.000;2023-05-10T00:24:25;12.90;;;6.30;;
48897;SDS011;34713;50.038;20.000;2023-05-10T00:26:59;12.20;;;6.10;;
48897;SDS011;34713;50.038;20.000;2023-05-10T00:29:46;10.40;;;6.10;;
48897;SDS011;34713;50.038;20.000;2023-05-10T00:32:39;12.80;;;6.00;;
48897;SDS011;34713;50.038;20.000;2023-05-10T00:38:32;13.30;;;6.00;;
48897;SDS011;34713;50.038;20.000;2023-05-10T00:41:04;10.00;;;6.10;;
48897;SDS011;34713;50.038;20.000;2023-05-10T00:43:41;10.70;;;6.90;;
48897;SDS011;34713;50.038;20.000;2023-05-10T00:46:17;13.90;;;6.50;;
48897;SDS011;34713;50.038;20.000;2023-05-10T00:48:52;10.50;;;6.50;;
48897;SDS011;34713;50.038;20.000;2023-05-10T00:51:36;9.60;;;5.90;;
48897;SDS011;34713;50.038;20.000;2023-05-10T00:57:43;10.50;;;6.10;;
48897;SDS011;34713;50.038;20.000;2023-05-10T01:00:21;10.20;;;6.30;;
48897;SDS011;34713;50.038;20.000;2023-05-10T01:03:01;11.90;;;6.90;;
48897;SDS011;34713;50.038;20.000;2023-05-10T01:05:43;9.00;;;5.80;;
48897;SDS011;34713;50.038;20.000;2023-05-10T01:08:21;14.60;;;6.00;;
48897;SDS011;34713;50.038;20.000;2023-05-10T01:10:52;13.50;;;7.00;;
48897;SDS011;34713;50.038;20.000;2023-05-10T01:14:02;10.40;;;6.40;;
48897;SDS011;34713;50.038;20.000;2023-05-10T01:16:57;9.20;;;6.00;;
48897;SDS011;34713;50.038;20.000;2023-05-10T01:19:59;11.10;;;6.10;;
48897;SDS011;34713;50.038;20.000;2023-05-10T01:25:37;11.20;;;6.70;;
48897;SDS011;34713;50.038;20.000;2023-05-10T01:32:39;13.40;;;8.60;;
48897;SDS011;34713;50.038;20.000;2023-05-10T01:35:17;13.00;;;8.50;;
48897;SDS011;34713;50.038;20.000;2023-05-10T01:41:18;14.30;;;9.60;;
48897;SDS011;34713;50.038;20.000;2023-05-10T01:50:50;15.00;;;9.50;;
48897;SDS011;34713;50.038;20.000;2023-05-10T01:56:28;15.70;;;9.90;;
48897;SDS011;34713;50.038;20.000;2023-05-10T01:59:05;15.30;;;9.40;;
48897;SDS011;34713;50.038;20.000;2023-05-10T02:01:45;15.30;;;10.30;;
48897;SDS011;34713;50.038;20.000;2023-05-10T02:04:35;15.70;;;10.20;;
48897;SDS011;34713;50.038;20.000;2023-05-10T02:07:45;16.40;;;10.50;;
48897;SDS011;34713;50.038;20.000;2023-05-10T02:10:19;16.90;;;9.60;;
48897;SDS011;34713;50.038;20.000;2023-05-10T02:12:55;22.10;;;10.40;;
48897;SDS011;34713;50.038;20.000;2023-05-10T02:16:01;17.20;;;9.40;;
48897;SDS011;34713;50.038;20.000;2023-05-10T02:18:41;16.80;;;10.00;;
48897;SDS011;34713;50.038;20.000;2023-05-10T02:21:15;17.00;;;10.00;;
48897;SDS011;34713;50.038;20.000;2023-05-10T02:23:50;15.60;;;9.90;;
48897;SDS011;34713;50.038;20.000;2023-05-10T02:26:46;14.40;;;9.90;;
48897;SDS011;34713;50.038;20.000;2023-05-10T02:29:16;21.40;;;9.30;;
48897;SDS011;34713;50.038;20.000;2023-05-10T02:31:57;15.30;;;9.50;;
48897;SDS011;34713;50.038;20.000;2023-05-10T02:34:37;17.30;;;9.20;;
48897;SDS011;34713;50.038;20.000;2023-05-10T02:37:09;16.90;;;9.10;;
48897;SDS011;34713;50.038;20.000;2023-05-10T02:39:40;23.50;;;10.40;;
48897;SDS011;34713;50.038;20.000;2023-05-10T02:42:19;20.80;;;10.00;;
48897;SDS011;34713;50.038;20.000;2023-05-10T02:44:50;15.70;;;10.10;;
48897;SDS011;34713;50.038;20.000;2023-05-10T02:47:18;18.20;;;10.30;;
48897;SDS011;34713;50.038;20.000;2023-05-10T02:49:48;17.80;;;10.00;;
48897;SDS011;34713;50.038;20.000;2023-05-10T02:52:44;14.90;;;10.50;;
48897;SDS011;34713;50.038;20.000;2023-05-10T02:55:32;16.90;;;11.00;;
48897;SDS011;34713;50.038;20.000;2023-05-10T02:58:15;17.30;;;10.70;;
48897;SDS011;34713;50.038;20.000;2023-05-10T03:00:50;16.20;;;11.20;;
48897;SDS011;34713;50.038;20.000;2023-05-10T03:03:35;20.30;;;11.00;;
48897;SDS011;34713;50.038;20.000;2023-05-10T03:06:07;16.30;;;10.10;;
48897;SDS011;34713;50.038;20.000;2023-05-10T03:08:44;16.90;;;11.10;;
48897;SDS011;34713;50.038;20.000;2023-05-10T03:17:59;17.00;;;11.30;;
48897;SDS011;34713;50.038;20.000;2023-05-10T03:21:04;15.30;;;10.90;;
48897;SDS011;34713;50.038;20.000;2023-05-10T03:23:53;18.70;;;11.20;;
48897;SDS011;34713;50.038;20.000;2023-05-10T03:26:26;17.20;;;11.10;;
48897;SDS011;34713;50.038;20.000;2023-05-10T03:28:58;21.90;;;10.60;;
48897;SDS011;34713;50.038;20.000;2023-05-10T03:34:59;18.80;;;10.90;;
48897;SDS011;34713;50.038;20.000;2023-05-10T03:40:04;22.00;;;10.40;;
48897;SDS011;34713;50.038;20.000;2023-05-10T03:42:34;21.70;;;11.10;;
48897;SDS011;34713;50.038;20.000;2023-05-10T03:45:08;19.10;;;11.30;;
48897;SDS011;34713;50.038;20.000;2023-05-10T03:47:50;17.50;;;10.40;;
48897;SDS011;34713;50.038;20.000;2023-05-10T03:50:49;18.20;;;11.10;;
48897;SDS011;34713;50.038;20.000;2023-05-10T03:56:08;20.60;;;11.40;;
48897;SDS011;34713;50.038;20.000;2023-05-10T03:59:11;16.00;;;9.10;;
48897;SDS011;34713;50.038;20.000;2023-05-10T04:01:41;17.60;;;8.80;;
48897;SDS011;34713;50.038;20.000;2023-05-10T04:07:30;16.10;;;9.40;;
48897;SDS011;34713;50.038;20.000;2023-05-10T04:10:23;13.00;;;8.70;;
48897;SDS011;34713;50.038;20.000;2023-05-10T04:19:04;11.40;;;6.80;;
48897;SDS011;34713;50.038;20.000;2023-05-10T04:22:02;13.10;;;7.10;;
48897;SDS011;34713;50.038;20.000;2023-05-10T04:35:11;13.50;;;6.80;;
48897;SDS011;34713;50.038;20.000;2023-05-10T04:41:45;20.10;;;7.90;;
48897;SDS011;34713;50.038;20.000;2023-05-10T04:54:48;10.00;;;6.40;;
48897;SDS011;34713;50.038;20.000;2023-05-10T04:57:58;7.80;;;5.40;;
48897;SDS011;34713;50.038;20.000;2023-05-10T05:55:55;9.80;;;3.70;;
48897;SDS011;34713;50.038;20.000;2023-05-10T06:17:02;4.80;;;2.40;;
48897;SDS011;34713;50.038;20.000;2023-05-10T06:19:51;5.30;;;2.40;;
48897;SDS011;34713;50.038;20.000;2023-05-10T06:22:54;3.90;;;2.30;;
48897;SDS011;34713;50.038;20.000;2023-05-10T06:25:54;3.70;;;2.50;;
48897;SDS011;34713;50.038;20.000;2023-05-10T06:28:20;6.80;;;1.90;;
48897;SDS011;34713;50.038;20.000;2023-05-10T06:30:53;4.00;;;2.20;;
48897;SDS011;34713;50.038;20.000;2023-05-10T06:33:41;8.50;;;2.20;;
48897;SDS011;34713;50.038;20.000;2023-05-10T06:39:17;5.60;;;2.20;;
48897;SDS011;34713;50.038;20.000;2023-05-10T06:41:44;4.10;;;2.10;;
48897;SDS011;34713;50.038;20.000;2023-05-10T06:44:26;4.00;;;2.10;;
48897;SDS011;34713;50.038;20.000;2023-05-10T06:47:16;3.20;;;2.00;;
48897;SDS011;34713;50.038;20.000;2023-05-10T06:50:07;4.90;;;2.10;;
48897;SDS011;34713;50.038;20.000;2023-05-10T06:52:34;4.60;;;1.80;;
48897;SDS011;34713;50.038;20.000;2023-05-10T06:55:01;6.30;;;1.90;;
48897;SDS011;34713;50.038;20.000;2023-05-10T06:57:53;3.90;;;1.90;;
48897;SDS011;34713;50.038;20.000;2023-05-10T07:00:39;6.80;;;2.30;;
48897;SDS011;34713;50.038;20.000;2023-05-10T07:03:22;2.90;;;2.00;;
48897;SDS011;34713;50.038;20.000;2023-05-10T07:06:01;5.10;;;1.80;;
48897;SDS011;34713;50.038;20.000;2023-05-10T07:15:08;3.60;;;1.70;;
48897;SDS011;34713;50.038;20.000;2023-05-10T07:18:00;2.30;;;1.60;;
48897;SDS011;34713;50.038;20.000;2023-05-10T07:30:00;2.50;;;1.70;;
48897;SDS011;34713;50.038;20.000;2023-05-10T07:33:00;5.30;;;1.90;;
48897;SDS011;34713;50.038;20.000;2023-05-10T07:35:35;5.10;;;2.00;;
48897;SDS011;34713;50.038;20.000;2023-05-10T07:47:38;7.60;;;2.90;;
48897;SDS011;34713;50.038;20.000;2023-05-10T07:54:02;8.60;;;2.70;;
48897;SDS011;34713;50.038;20.000;2023-05-10T07:57:02;4.70;;;2.30;;
48897;SDS011;34713;50.038;20.000;2023-05-10T08:10:11;5.80;;;2.60;;
48897;SDS011;34713;50.038;20.000;2023-05-10T08:16:48;7.50;;;2.60;;
48897;SDS011;34713;50.038;20.000;2023-05-10T08:26:39;4.70;;;2.50;;
48897;SDS011;34713;50.038;20.000;2023-05-10T08:35:42;4.60;;;2.10;;
48897;SDS011;34713;50.038;20.000;2023-05-10T08:38:49;3.90;;;2.10;;
48897;SDS011;34713;50.038;20.000;2023-05-10T08:48:11;5.30;;;1.80;;
48897;SDS011;34713;50.038;20.000;2023-05-10T08:50:52;3.90;;;1.70;;
48897;SDS011;34713;50.038;20.000;2023-05-10T08:59:25;3.30;;;1.60;;
48897;SDS011;34713;50.038;20.000;2023-05-10T09:09:38;6.00;;;1.70;;
48897;SDS011;34713;50.038;20.000;2023-05-10T09:22:40;7.40;;;1.90;;
48897;SDS011;34713;50.038;20.000;2023-05-10T09:29:25;3.10;;;1.70;;
48897;SDS011;34713;50.038;20.000;2023-05-10T09:42:55;5.90;;;1.60;;
48897;SDS011;34713;50.038;20.000;2023-05-10T09:52:51;3.60;;;2.00;;
48897;SDS011;34713;50.038;20.000;2023-05-10T10:02:55;3.70;;;1.70;;
48897;SDS011;34713;50.038;20.000;2023-05-10T10:09:46;6.80;;;1.80;;
48897;SDS011;34713;50.038;20.000;2023-05-10T10:12:45;4.30;;;1.90;;
48897;SDS011;34713;50.038;20.000;2023-05-10T10:15:14;7.90;;;2.90;;
48897;SDS011;34713;50.038;20.000;2023-05-10T10:18:22;2.50;;;1.60;;
48897;SDS011;34713;50.038;20.000;2023-05-10T10:21:31;2.10;;;1.60;;
48897;SDS011;34713;50.038;20.000;2023-05-10T10:24:20;3.50;;;1.80;;
48897;SDS011;34713;50.038;20.000;2023-05-10T10:26:49;2.30;;;1.70;;
48897;SDS011;34713;50.038;20.000;2023-05-10T10:39:25;2.60;;;1.50;;
48897;SDS011;34713;50.038;20.000;2023-05-10T10:41:55;2.40;;;1.40;;
48897;SDS011;34713;50.038;20.000;2023-05-10T10:47:40;6.30;;;1.80;;
48897;SDS011;34713;50.038;20.000;2023-05-10T10:50:09;2.80;;;1.70;;
48897;SDS011;34713;50.038;20.000;2023-05-10T10:53:10;2.80;;;1.80;;
48897;SDS011;34713;50.038;20.000;2023-05-10T10:56:16;4.30;;;1.60;;
48897;SDS011;34713;50.038;20.000;2023-05-10T10:59:05;3.10;;;1.40;;
48897;SDS011;34713;50.038;20.000;2023-05-10T11:02:05;4.10;;;1.40;;
48897;SDS011;34713;50.038;20.000;2023-05-10T11:10:53;4.30;;;1.60;;
48897;SDS011;34713;50.038;20.000;2023-05-10T11:13:37;2.20;;;1.50;;
48897;SDS011;34713;50.038;20.000;2023-05-10T11:16:11;3.80;;;1.50;;
48897;SDS011;34713;50.038;20.000;2023-05-10T11:18:51;3.30;;;1.70;;
48897;SDS011;34713;50.038;20.000;2023-05-10T11:21:52;4.90;;;1.90;;
48897;SDS011;34713;50.038;20.000;2023-05-10T11:25:05;1.80;;;1.40;;
48897;SDS011;34713;50.038;20.000;2023-05-10T11:30:52;4.70;;;1.60;;
48897;SDS011;34713;50.038;20.000;2023-05-10T11:34:00;1.40;;;1.00;;
48897;SDS011;34713;50.038;20.000;2023-05-10T11:40:08;2.60;;;1.70;;
48897;SDS011;34713;50.038;20.000;2023-05-10T11:43:10;7.20;;;1.80;;
48897;SDS011;34713;50.038;20.000;2023-05-10T11:49:25;5.10;;;1.50;;
48897;SDS011;34713;50.038;20.000;2023-05-10T11:55:49;4.40;;;1.60;;
48897;SDS011;34713;50.038;20.000;2023-05-10T11:58:45;5.70;;;1.70;;
48897;SDS011;34713;50.038;20.000;2023-05-10T12:01:39;2.80;;;1.70;;
48897;SDS011;34713;50.038;20.000;2023-05-10T12:04:33;6.80;;;2.10;;
48897;SDS011;34713;50.038;20.000;2023-05-10T12:07:00;3.90;;;1.40;;
48897;SDS011;34713;50.038;20.000;2023-05-10T12:09:30;2.40;;;1.50;;
48897;SDS011;34713;50.038;20.000;2023-05-10T12:12:00;5.50;;;1.80;;
48897;SDS011;34713;50.038;20.000;2023-05-10T12:14:34;3.10;;;1.60;;
48897;SDS011;34713;50.038;20.000;2023-05-10T12:17:11;7.20;;;2.40;;
48897;SDS011;34713;50.038;20.000;2023-05-10T12:19:44;4.00;;;1.70;;
48897;SDS011;34713;50.038;20.000;2023-05-10T12:22:55;4.10;;;1.50;;
48897;SDS011;34713;50.038;20.000;2023-05-10T12:25:40;5.10;;;1.90;;
48897;SDS011;34713;50.038;20.000;2023-05-10T12:38:40;3.10;;;1.60;;
48897;SDS011;34713;50.038;20.000;2023-05-10T12:55:22;4.90;;;2.00;;
48897;SDS011;34713;50.038;20.000;2023-05-10T13:04:33;9.10;;;1.60;;
48897;SDS011;34713;50.038;20.000;2023-05-10T13:07:34;5.90;;;1.60;;
48897;SDS011;34713;50.038;20.000;2023-05-10T13:13:46;3.10;;;1.50;;
48897;SDS011;34713;50.038;20.000;2023-05-10T13:16:27;2.20;;;1.60;;
48897;SDS011;34713;50.038;20.000;2023-05-10T13:29:40;4.20;;;1.80;;
48897;SDS011;34713;50.038;20.000;2023-05-10T13:32:15;6.30;;;1.90;;
48897;SDS011;34713;50.038;20.000;2023-05-10T13:34:56;3.00;;;2.00;;
48897;SDS011;34713;50.038;20.000;2023-05-10T13:37:32;3.80;;;1.60;;
48897;SDS011;34713;50.038;20.000;2023-05-10T13:43:23;3.50;;;1.60;;
48897;SDS011;34713;50.038;20.000;2023-05-10T13:52:22;4.10;;;1.80;;
48897;SDS011;34713;50.038;20.000;2023-05-10T13:55:28;6.10;;;1.80;;
48897;SDS011;34713;50.038;20.000;2023-05-10T14:01:24;2.90;;;1.80;;
48897;SDS011;34713;50.038;20.000;2023-05-10T14:04:06;4.30;;;1.40;;
48897;SDS011;34713;50.038;20.000;2023-05-10T14:06:43;2.90;;;1.30;;
48897;SDS011;34713;50.038;20.000;2023-05-10T14:09:10;3.80;;;1.50;;
48897;SDS011;34713;50.038;20.000;2023-05-10T14:11:49;5.40;;;1.90;;
48897;SDS011;34713;50.038;20.000;2023-05-10T14:17:42;5.00;;;1.60;;
48897;SDS011;34713;50.038;20.000;2023-05-10T14:20:37;3.50;;;1.40;;
48897;SDS011;34713;50.038;20.000;2023-05-10T14:26:22;3.20;;;1.40;;
48897;SDS011;34713;50.038;20.000;2023-05-10T14:28:52;3.70;;;2.10;;
48897;SDS011;34713;50.038;20.000;2023-05-10T14:31:39;5.30;;;1.40;;
48897;SDS011;34713;50.038;20.000;2023-05-10T14:34:12;3.30;;;1.40;;
48897;SDS011;34713;50.038;20.000;2023-05-10T14:36:51;4.20;;;2.10;;
48897;SDS011;34713;50.038;20.000;2023-05-10T14:39:31;3.60;;;1.40;;
48897;SDS011;34713;50.038;20.000;2023-05-10T14:42:31;6.10;;;2.00;;
48897;SDS011;34713;50.038;20.000;2023-05-10T14:45:24;3.80;;;1.70;;
48897;SDS011;34713;50.038;20.000;2023-05-10T14:48:17;3.10;;;1.50;;
48897;SDS011;34713;50.038;20.000;2023-05-10T14:50:53;4.10;;;1.60;;
48897;SDS011;34713;50.038;20.000;2023-05-10T14:56:52;5.10;;;1.50;;
48897;SDS011;34713;50.038;20.000;2023-05-10T15:02:54;6.70;;;1.50;;
48897;SDS011;34713;50.038;20.000;2023-05-10T15:11:38;3.10;;;1.30;;
48897;SDS011;34713;50.038;20.000;2023-05-10T15:14:33;2.20;;;1.40;;
48897;SDS011;34713;50.038;20.000;2023-05-10T15:17:10;5.60;;;1.60;;
48897;SDS011;34713;50.038;20.000;2023-05-10T15:20:00;5.00;;;1.60;;
48897;SDS011;34713;50.038;20.000;2023-05-10T15:22:31;3.20;;;1.70;;
48897;SDS011;34713;50.038;20.000;2023-05-10T15:25:06;4.10;;;1.40;;
48897;SDS011;34713;50.038;20.000;2023-05-10T15:27:49;3.80;;;1.30;;
48897;SDS011;34713;50.038;20.000;2023-05-10T15:30:24;3.40;;;1.50;;
48897;SDS011;34713;50.038;20.000;2023-05-10T15:35:37;3.20;;;1.50;;
48897;SDS011;34713;50.038;20.000;2023-05-10T15:38:07;2.00;;;1.40;;
48897;SDS011;34713;50.038;20.000;2023-05-10T15:40:35;5.70;;;1.50;;
48897;SDS011;34713;50.038;20.000;2023-05-10T15:43:25;2.80;;;1.40;;
48897;SDS011;34713;50.038;20.000;2023-05-10T15:46:17;2.90;;;1.70;;
48897;SDS011;34713;50.038;20.000;2023-05-10T15:48:56;3.90;;;1.60;;
48897;SDS011;34713;50.038;20.000;2023-05-10T15:54:52;5.30;;;2.10;;
48897;SDS011;34713;50.038;20.000;2023-05-10T15:57:21;4.60;;;1.40;;
48897;SDS011;34713;50.038;20.000;2023-05-10T16:00:12;6.40;;;1.70;;
48897;SDS011;34713;50.038;20.000;2023-05-10T16:02:42;2.30;;;1.50;;
48897;SDS011;34713;50.038;20.000;2023-05-10T16:05:34;2.10;;;1.40;;
48897;SDS011;34713;50.038;20.000;2023-05-10T16:12:12;5.00;;;2.30;;
48897;SDS011;34713;50.038;20.000;2023-05-10T16:14:39;4.40;;;1.50;;
48897;SDS011;34713;50.038;20.000;2023-05-10T16:20:07;3.70;;;1.60;;
48897;SDS011;34713;50.038;20.000;2023-05-10T16:46:13;3.50;;;1.60;;
48897;SDS011;34713;50.038;20.000;2023-05-10T16:52:45;3.50;;;1.60;;
48897;SDS011;34713;50.038;20.000;2023-05-10T16:55:36;2.40;;;1.40;;
48897;SDS011;34713;50.038;20.000;2023-05-10T17:01:24;3.90;;;1.60;;
48897;SDS011;34713;50.038;20.000;2023-05-10T17:14:45;4.40;;;1.60;;
48897;SDS011;34713;50.038;20.000;2023-05-10T17:24:40;4.10;;;2.00;;
48897;SDS011;34713;50.038;20.000;2023-05-10T17:27:07;6.10;;;2.10;;
48897;SDS011;34713;50.038;20.000;2023-05-10T17:36:15;2.00;;;1.50;;
48897;SDS011;34713;50.038;20.000;2023-05-10T17:38:48;2.90;;;1.80;;
48897;SDS011;34713;50.038;20.000;2023-05-10T17:41:23;7.10;;;1.90;;
48897;SDS011;34713;50.038;20.000;2023-05-10T17:50:36;3.90;;;1.80;;
48897;SDS011;34713;50.038;20.000;2023-05-10T17:53:18;3.30;;;1.80;;
48897;SDS011;34713;50.038;20.000;2023-05-10T18:02:26;4.00;;;1.50;;
48897;SDS011;34713;50.038;20.000;2023-05-10T18:05:26;5.10;;;1.60;;
48897;SDS011;34713;50.038;20.000;2023-05-10T18:11:08;5.30;;;2.10;;
48897;SDS011;34713;50.038;20.000;2023-05-10T18:13:59;6.30;;;2.20;;
48897;SDS011;34713;50.038;20.000;2023-05-10T18:16:31;6.00;;;2.10;;
48897;SDS011;34713;50.038;20.000;2023-05-10T18:18:58;8.10;;;2.50;;
48897;SDS011;34713;50.038;20.000;2023-05-10T18:25:32;7.50;;;2.20;;
48897;SDS011;34713;50.038;20.000;2023-05-10T18:28:39;9.10;;;2.60;;
48897;SDS011;34713;50.038;20.000;2023-05-10T18:31:10;6.20;;;2.50;;
48897;SDS011;34713;50.038;20.000;2023-05-10T18:37:19;6.00;;;2.30;;
48897;SDS011;34713;50.038;20.000;2023-05-10T18:43:04;8.30;;;2.40;;
48897;SDS011;34713;50.038;20.000;2023-05-10T18:45:32;6.90;;;2.40;;
48897;SDS011;34713;50.038;20.000;2023-05-10T18:48:18;6.10;;;2.50;;
48897;SDS011;34713;50.038;20.000;2023-05-10T18:51:09;7.40;;;2.40;;
48897;SDS011;34713;50.038;20.000;2023-05-10T19:00:11;4.80;;;2.90;;
48897;SDS011;34713;50.038;20.000;2023-05-10T19:09:13;4.20;;;2.60;;
48897;SDS011;34713;50.038;20.000;2023-05-10T19:12:10;12.50;;;3.50;;
48897;SDS011;34713;50.038;20.000;2023-05-10T19:15:20;11.20;;;2.80;;
48897;SDS011;34713;50.038;20.000;2023-05-10T19:18:18;7.90;;;2.80;;
48897;SDS011;34713;50.038;20.000;2023-05-10T19:21:06;7.10;;;3.00;;
48897;SDS011;34713;50.038;20.000;2023-05-10T19:23:37;7.60;;;2.90;;
48897;SDS011;34713;50.038;20.000;2023-05-10T19:26:07;7.20;;;3.20;;
48897;SDS011;34713;50.038;20.000;2023-05-10T19:28:43;8.00;;;3.20;;
48897;SDS011;34713;50.038;20.000;2023-05-10T19:31:15;7.70;;;3.20;;
48897;SDS011;34713;50.038;20.000;2023-05-10T19:34:08;8.60;;;3.70;;
48897;SDS011;34713;50.038;20.000;2023-05-10T19:36:35;10.30;;;3.60;;
48897;SDS011;34713;50.038;20.000;2023-05-10T19:39:25;9.60;;;4.50;;
48897;SDS011;34713;50.038;20.000;2023-05-10T19:41:52;7.40;;;3.70;;
48897;SDS011;34713;50.038;20.000;2023-05-10T19:44:18;7.90;;;3.30;;
48897;SDS011;34713;50.038;20.000;2023-05-10T19:53:08;9.60;;;3.50;;
48897;SDS011;34713;50.038;20.000;2023-05-10T19:55:55;11.10;;;3.30;;
48897;SDS011;34713;50.038;20.000;2023-05-10T19:58:32;10.90;;;4.80;;
48897;SDS011;34713;50.038;20.000;2023-05-10T20:04:29;11.60;;;3.30;;
48897;SDS011;34713;50.038;20.000;2023-05-10T20:06:56;5.70;;;3.10;;
48897;SDS011;34713;50.038;20.000;2023-05-10T20:09:23;6.90;;;3.50;;
48897;SDS011;34713;50.038;20.000;2023-05-10T20:12:00;8.70;;;3.30;;
48897;SDS011;34713;50.038;20.000;2023-05-10T20:14:30;7.50;;;3.30;;
48897;SDS011;34713;50.038;20.000;2023-05-10T20:17:30;6.60;;;3.20;;
48897;SDS011;34713;50.038;20.000;2023-05-10T20:20:21;10.10;;;3.40;;
48897;SDS011;34713;50.038;20.000;2023-05-10T20:22:48;8.60;;;4.00;;
48897;SDS011;34713;50.038;20.000;2023-05-10T20:25:15;7.60;;;4.40;;
48897;SDS011;34713;50.038;20.000;2023-05-10T20:27:45;8.20;;;3.80;;
48897;SDS011;34713;50.038;20.000;2023-05-10T20:30:21;8.40;;;4.40;;
48897;SDS011;34713;50.038;20.000;2023-05-10T20:32:51;11.10;;;5.00;;
48897;SDS011;34713;50.038;20.000;2023-05-10T20:35:20;10.70;;;5.00;;
48897;SDS011;34713;50.038;20.000;2023-05-10T20:37:50;9.80;;;5.00;;
48897;SDS011;34713;50.038;20.000;2023-05-10T20:43:28;7.20;;;4.00;;
48897;SDS011;34713;50.038;20.000;2023-05-10T20:49:26;7.00;;;4.30;;
48897;SDS011;34713;50.038;20.000;2023-05-10T20:55:19;12.40;;;4.60;;
48897;SDS011;34713;50.038;20.000;2023-05-10T20:58:27;5.80;;;3.70;;
48897;SDS011;34713;50.038;20.000;2023-05-10T21:00:56;6.50;;;3.60;;
48897;SDS011;34713;50.038;20.000;2023-05-10T21:03:25;7.50;;;3.90;;
48897;SDS011;34713;50.038;20.000;2023-05-10T21:05:58;13.80;;;4.40;;
48897;SDS011;34713;50.038;20.000;2023-05-10T21:08:41;8.40;;;3.60;;
48897;SDS011;34713;50.038;20.000;2023-05-10T21:11:33;7.90;;;4.40;;
48897;SDS011;34713;50.038;20.000;2023-05-10T21:14:06;7.30;;;4.00;;
48897;SDS011;34713;50.038;20.000;2023-05-10T21:16:41;7.00;;;3.80;;
48897;SDS011;34713;50.038;20.000;2023-05-10T21:19:20;8.30;;;4.80;;
48897;SDS011;34713;50.038;20.000;2023-05-10T21:22:08;6.40;;;4.10;;
48897;SDS011;34713;50.038;20.000;2023-05-10T21:28:26;7.90;;;3.80;;
48897;SDS011;34713;50.038;20.000;2023-05-10T21:31:24;7.30;;;3.90;;
48897;SDS011;34713;50.038;20.000;2023-05-10T22:00:08;7.20;;;4.00;;
48897;SDS011;34713;50.038;20.000;2023-05-10T22:02:50;11.10;;;3.70;;
48897;SDS011;34713;50.038;20.000;2023-05-10T22:05:22;7.20;;;3.90;;
48897;SDS011;34713;50.038;20.000;2023-05-10T22:07:52;7.80;;;4.20;;
48897;SDS011;34713;50.038;20.000;2023-05-10T22:10:39;10.60;;;4.20;;
48897;SDS011;34713;50.038;20.000;2023-05-10T22:13:29;7.80;;;3.90;;
48897;SDS011;34713;50.038;20.000;2023-05-10T22:16:10;11.50;;;3.90;;
48897;SDS011;34713;50.038;20.000;2023-05-10T22:18:58;8.40;;;4.30;;
48897;SDS011;34713;50.038;20.000;2023-05-10T22:21:40;8.30;;;4.70;;
48897;SDS011;34713;50.038;20.000;2023-05-10T22:27:59;8.20;;;4.50;;
48897;SDS011;34713;50.038;20.000;2023-05-10T22:30:36;8.30;;;4.60;;
48897;SDS011;34713;50.038;20.000;2023-05-10T22:33:18;12.60;;;4.60;;
48897;SDS011;34713;50.038;20.000;2023-05-10T22:36:01;9.60;;;4.60;;
48897;SDS011;34713;50.038;20.000;2023-05-10T22:38:48;9.40;;;4.80;;
48897;SDS011;34713;50.038;20.000;2023-05-10T22:41:36;7.90;;;5.10;;
48897;SDS011;34713;50.038;20.000;2023-05-10T22:44:29;8.50;;;4.80;;
48897;SDS011;34713;50.038;20.000;2023-05-10T22:50:40;11.10;;;5.10;;
48897;SDS011;34713;50.038;20.000;2023-05-10T22:53:27;12.50;;;5.40;;
48897;SDS011;34713;50.038;20.000;2023-05-10T22:55:54;8.20;;;5.10;;
48897;SDS011;34713;50.038;20.000;2023-05-10T22:58:50;9.90;;;5.20;;
48897;SDS011;34713;50.038;20.000;2023-05-10T23:01:17;9.70;;;5.10;;
48897;SDS011;34713;50.038;20.000;2023-05-10T23:07:14;11.20;;;4.80;;
48897;SDS011;34713;50.038;20.000;2023-05-10T23:10:21;7.50;;;4.50;;
48897;SDS011;34713;50.038;20.000;2023-05-10T23:16:26;10.50;;;4.90;;
48897;SDS011;34713;50.038;20.000;2023-05-10T23:19:35;11.00;;;5.70;;
48897;SDS011;34713;50.038;20.000;2023-05-10T23:22:08;12.70;;;5.50;;
48897;SDS011;34713;50.038;20.000;2023-05-10T23:28:10;10.10;;;5.90;;
48897;SDS011;34713;50.038;20.000;2023-05-10T23:34:11;8.50;;;5.50;;
48897;SDS011;34713;50.038;20.000;2023-05-10T23:40:01;13.30;;;6.60;;
48897;SDS011;34713;50.038;20.000;2023-05-10T23:42:58;10.30;;;7.20;;
48897;SDS011;34713;50.038;20.000;2023-05-10T23:46:13;14.10;;;7.10;;
48897;SDS011;34713;50.038;20.000;2023-05-10T23:48:57;13.20;;;7.90;;
48897;SDS011;34713;50.038;20.000;2023-05-10T23:51:44;10.20;;;7.60;;
48897;SDS011;34713;50.038;20.000;2023-05-10T23:54:45;15.20;;;7.00;;
